Time;durP1;ratioP1;P1;durP2;ratioP2;P2;SDS_P1;SDS_P2;PMS_P1;PMS_P2;Temp;Humidity;BMP_temperature;BMP_pressure;BME280_temperature;BME280_humidity;BME280_pressure;Samples;Min_cycle;Max_cycle;Signal;HPM_P1;HPM_P2
2023/05/24 00:01:55;;;;;;;20.83;4.60;;;;;;;;;;4922212;29;20090;-76
2023/05/24 00:04:21;;;;;;;31.83;5.78;;;;;;;;;;4922706;29;20703;-76
2023/05/24 00:06:47;;;;;;;25.63;5.25;;;;;;;;;;4921513;29;20044;-76
2023/05/24 00:09:13;;;;;;;22.63;5.88;;;;;;;;;;4921223;29;20039;-76
2023/05/24 00:11:39;;;;;;;26.35;5.60;;;;;;;;;;4916635;29;20042;-75
2023/05/24 00:14:05;;;;;;;22.23;5.05;;;;;;;;;;4949383;28;20060;-77
2023/05/24 00:16:32;;;;;;;22.20;4.72;;;;;;;;;;4925756;29;20040;-76
2023/05/24 00:18:58;;;;;;;33.50;5.20;;;;;;;;;;4922680;29;20062;-76
2023/05/24 00:21:24;;;;;;;19.17;4.95;;;;;;;;;;4920999;29;20454;-76
2023/05/24 00:23:50;;;;;;;18.55;4.70;;;;;;;;;;4923282;29;20044;-77
2023/05/24 00:26:17;;;;;;;21.75;5.88;;;;;;;;;;4916726;29;20032;-76
2023/05/24 00:28:43;;;;;;;24.80;3.67;;;;;;;;;;4955364;28;20083;-76
2023/05/24 00:31:09;;;;;;;21.15;4.38;;;;;;;;;;4940246;28;20056;-76
2023/05/24 00:33:35;;;;;;;23.52;5.53;;;;;;;;;;4932690;28;20042;-75
2023/05/24 00:36:01;;;;;;;24.52;4.85;;;;;;;;;;4914178;29;20119;-76
2023/05/24 00:38:27;;;;;;;21.15;5.85;;;;;;;;;;4920012;29;20059;-76
2023/05/24 00:40:59;;;;;;;27.52;5.22;;;;;;;;;;4920629;29;20035;-75
2023/05/24 00:43:25;;;;;;;23.92;4.90;;;;;;;;;;4920884;29;20172;-75
2023/05/24 00:46:21;;;;;;;20.20;4.43;;;9.10;99.90;;;;;;4919475;29;20048;-77
2023/05/24 00:48:49;;;;;;;21.60;5.50;;;;;;;;;;4916103;29;20044;-77
2023/05/24 00:51:15;;;;;;;23.48;4.97;;;;;;;;;;4920961;29;20044;-77
2023/05/24 00:53:42;;;;;;;29.55;5.78;;;;;;;;;;4919920;29;20020;-75
2023/05/24 00:56:08;;;;;;;31.08;6.10;;;;;;;;;;4920825;29;20104;-77
2023/05/24 00:58:35;;;;;;;25.63;4.38;;;;;;;;;;4940268;28;20036;-75
2023/05/24 01:01:01;;;;;;;26.30;4.30;;;;;;;;;;4925463;29;20505;-75
2023/05/24 01:03:31;;;;;;;25.85;4.63;;;;;;;;;;4921767;29;20055;-76
2023/05/24 01:06:01;;;;;;;28.20;5.93;;;;;;;;;;4928896;28;20163;-76
2023/05/24 01:08:41;;;;;;;23.67;5.03;;;;;;;;;;4919140;29;20387;-76
2023/05/24 01:11:44;;;;;;;28.60;5.70;;;9.10;99.90;;;;;;4930841;29;20043;-77
2023/05/24 01:14:13;;;;;;;;;;;;;;;;;;4919424;29;20143;-77
2023/05/24 01:16:46;;;;;;;27.10;5.13;;;;;;;;;;4916473;29;19911;-76
2023/05/24 01:19:21;;;;;;;22.08;4.63;;;;;;;;;;4923984;29;20483;-76
2023/05/24 01:21:50;;;;;;;25.15;4.63;;;;;;;;;;4918681;29;20526;-75
2023/05/24 01:24:32;;;;;;;21.30;4.68;;;;;;;;;;4918057;29;20103;-76
2023/05/24 01:27:12;;;;;;;31.53;7.03;;;;;;;;;;4916579;29;20047;-75
2023/05/24 01:29:38;;;;;;;28.50;4.50;;;;;;;;;;4946277;28;20063;-75
2023/05/24 01:32:04;;;;;;;28.90;5.03;;;;;;;;;;4917191;29;20075;-76
2023/05/24 01:34:30;;;;;;;34.00;6.00;;;;;;;;;;4916226;29;20071;-75
2023/05/24 01:36:56;;;;;;;25.15;5.75;;;;;;;;;;4914548;29;20036;-75
2023/05/24 01:39:25;;;;;;;27.42;5.03;;;;;;;;;;4917015;29;20107;-75
2023/05/24 01:42:07;;;;;;;26.15;6.00;;;;;;;;;;4918353;29;20032;-77
2023/05/24 01:44:42;;;;;;;24.13;5.00;;;;;;;;;;4923240;29;20729;-74
2023/05/24 01:47:22;;;;;;;29.27;6.03;;;;;;;;;;4920837;29;20036;-76
2023/05/24 01:49:50;;;;;;;23.73;4.70;;;;;;;;;;4919053;29;20027;-75
2023/05/24 01:52:19;;;;;;;26.40;5.60;;;;;;;;;;4915157;29;20163;-75
2023/05/24 01:54:49;;;;;;;21.70;4.57;;;;;;;;;;4923588;29;20055;-76
2023/05/24 01:57:16;;;;;;;20.00;4.63;;;;;;;;;;4915840;29;20119;-76
2023/05/24 01:59:42;;;;;;;26.08;5.00;;;;;;;;;;4919868;29;20043;-76
2023/05/24 02:02:10;;;;;;;17.75;5.50;;;;;;;;;;4918165;29;20079;-78
2023/05/24 02:04:36;;;;;;;20.20;4.30;;;;;;;;;;4920422;29;20474;-76
2023/05/24 02:07:02;;;;;;;27.95;4.13;;;;;;;;;;4917450;29;20119;-78
2023/05/24 02:09:28;;;;;;;20.30;5.45;;;;;;;;;;4918004;29;20055;-76
2023/05/24 02:11:54;;;;;;;16.77;4.30;;;;;;;;;;4918260;29;20704;-77
2023/05/24 02:14:20;;;;;;;17.23;4.60;;;;;;;;;;4914880;29;20032;-77
2023/05/24 02:16:46;;;;;;;20.05;5.10;;;;;;;;;;4918396;29;20148;-76
2023/05/24 02:19:13;;;;;;;22.75;4.95;;;;;;;;;;4912641;29;20028;-77
2023/05/24 02:21:40;;;;;;;28.80;4.50;;;;;;;;;;4919278;29;20035;-77
2023/05/24 02:24:06;;;;;;;19.73;4.53;;;;;;;;;;4915224;29;20046;-77
2023/05/24 02:26:32;;;;;;;20.15;4.90;;;;;;;;;;4920750;29;20392;-76
2023/05/24 02:28:58;;;;;;;30.05;4.93;;;;;;;;;;4919457;29;20507;-77
2023/05/24 02:31:27;;;;;;;26.73;5.28;;;;;;;;;;4915565;29;20079;-76
2023/05/24 02:33:53;;;;;;;27.33;4.95;;;;;;;;;;4919791;29;20024;-75
2023/05/24 02:36:22;;;;;;;26.52;5.28;;;;;;;;;;4919877;29;20039;-75
2023/05/24 02:38:48;;;;;;;23.67;4.97;;;;;;;;;;4917641;29;20035;-75
2023/05/24 02:41:16;;;;;;;17.65;4.22;;;;;;;;;;4918442;29;20035;-75
2023/05/24 02:43:43;;;;;;;22.95;4.25;;;;;;;;;;4920188;29;20029;-75
2023/05/24 02:46:09;;;;;;;23.15;5.50;;;;;;;;;;4923820;29;20067;-77
2023/05/24 02:48:35;;;;;;;23.33;5.18;;;;;;;;;;4917349;29;20064;-76
2023/05/24 02:51:04;;;;;;;24.88;6.35;;;;;;;;;;4919593;29;20031;-76
2023/05/24 02:53:31;;;;;;;28.50;5.10;;;;;;;;;;4916663;29;20036;-75
2023/05/24 02:55:57;;;;;;;25.83;6.60;;;;;;;;;;4921256;29;20111;-75
2023/05/24 02:58:23;;;;;;;14.50;3.78;;;;;;;;;;4916614;29;20036;-76
2023/05/24 03:00:49;;;;;;;23.90;4.60;;;;;;;;;;4952031;28;20091;-75
2023/05/24 03:03:15;;;;;;;16.13;4.25;;;;;;;;;;4953450;28;20513;-76
2023/05/24 03:05:41;;;;;;;21.65;5.28;;;;;;;;;;4917393;29;20111;-75
2023/05/24 03:08:07;;;;;;;24.80;5.68;;;;;;;;;;4919002;29;20040;-77
2023/05/24 03:10:33;;;;;;;23.45;4.47;;;;;;;;;;4921307;29;20032;-75
2023/05/24 03:12:59;;;;;;;18.58;4.13;;;;;;;;;;4921783;29;20024;-75
2023/05/24 03:15:25;;;;;;;19.38;4.22;;;;;;;;;;4917744;29;20051;-77
2023/05/24 03:17:51;;;;;;;27.80;5.25;;;;;;;;;;4918857;29;20044;-75
2023/05/24 03:20:19;;;;;;;18.38;4.47;;;;;;;;;;4922628;29;20031;-75
2023/05/24 03:22:45;;;;;;;22.58;4.70;;;;;;;;;;4916715;29;20032;-75
2023/05/24 03:25:11;;;;;;;26.83;4.40;;;;;;;;;;4920292;29;20036;-78
2023/05/24 03:27:38;;;;;;;21.02;4.15;;;;;;;;;;4920377;29;20054;-74
2023/05/24 03:30:05;;;;;;;22.15;4.97;;;;;;;;;;4916038;29;20056;-75
2023/05/24 03:32:31;;;;;;;23.08;4.38;;;;;;;;;;4921362;28;20075;-75
2023/05/24 03:34:59;;;;;;;23.60;4.18;;;;;;;;;;4918488;29;20475;-74
2023/05/24 03:37:25;;;;;;;17.92;3.83;;;;;;;;;;4938134;28;20518;-75
2023/05/24 03:39:51;;;;;;;20.88;3.97;;;;;;;;;;4922020;29;20051;-75
2023/05/24 03:42:17;;;;;;;24.63;4.22;;;;;;;;;;4920633;29;20032;-74
2023/05/24 03:44:43;;;;;;;25.95;5.13;;;;;;;;;;4920898;29;20031;-75
2023/05/24 03:47:09;;;;;;;26.33;4.20;;;;;;;;;;4923670;29;20114;-75
2023/05/24 03:49:35;;;;;;;23.88;4.75;;;;;;;;;;4922472;29;20408;-73
2023/05/24 03:52:02;;;;;;;23.85;5.95;;;;;;;;;;4918572;29;20090;-76
2023/05/24 03:54:28;;;;;;;23.95;4.22;;;;;;;;;;4939325;29;20063;-72
2023/05/24 03:56:54;;;;;;;16.17;3.90;;;;;;;;;;4928505;29;20036;-73
2023/05/24 03:59:21;;;;;;;21.83;6.70;;;;;;;;;;4945682;28;20046;-77
2023/05/24 04:01:47;;;;;;;21.75;4.80;;;;;;;;;;4915569;29;20040;-76
2023/05/24 04:04:13;;;;;;;21.90;4.72;;;;;;;;;;4917183;29;20028;-76
2023/05/24 04:06:40;;;;;;;19.27;4.00;;;;;;;;;;4921859;29;20118;-79
2023/05/24 04:09:06;;;;;;;24.98;5.25;;;;;;;;;;4927970;29;20027;-77
2023/05/24 04:11:32;;;;;;;21.90;4.28;;;;;;;;;;4936467;29;20036;-76
2023/05/24 04:13:59;;;;;;;25.88;4.18;;;;;;;;;;4923377;29;20217;-76
2023/05/24 04:16:26;;;;;;;17.88;4.38;;;;;;;;;;4927499;29;20039;-77
2023/05/24 04:18:52;;;;;;;25.02;3.95;;;;;;;;;;4939566;29;20079;-76
2023/05/24 04:21:18;;;;;;;25.42;4.28;;;;;;;;;;4941748;28;20504;-75
2023/05/24 04:23:44;;;;;;;25.85;4.97;;;;;;;;;;4931612;28;20044;-75
2023/05/24 04:26:10;;;;;;;27.27;4.90;;;;;;;;;;4932677;29;20039;-75
2023/05/24 04:28:40;;;;;;;21.42;4.47;;;;;;;;;;4934695;29;20075;-76
2023/05/24 04:31:06;;;;;;;16.17;4.38;;;;;;;;;;4931099;29;20522;-75
2023/05/24 04:33:33;;;;;;;23.38;5.15;;;;;;;;;;4918537;29;20039;-75
2023/05/24 04:36:00;;;;;;;25.55;5.85;;;;;;;;;;4919587;29;20044;-76
2023/05/24 04:38:28;;;;;;;27.13;4.72;;;;;;;;;;4936004;28;20156;-76
2023/05/24 04:40:58;;;;;;;19.67;3.72;;;;;;;;;;4914521;29;20423;-75
2023/05/24 04:43:27;;;;;;;18.98;5.20;;;;;;;;;;4923119;29;20106;-72
2023/05/24 04:45:53;;;;;;;25.10;4.43;;;;;;;;;;4921153;29;20040;-73
2023/05/24 04:48:22;;;;;;;16.10;4.30;;;;;;;;;;4915162;29;20040;-74
2023/05/24 04:50:48;;;;;;;17.02;4.50;;;;;;;;;;4919469;29;20159;-74
2023/05/24 04:53:14;;;;;;;19.55;4.82;;;;;;;;;;4914744;29;20106;-74
2023/05/24 04:55:41;;;;;;;18.67;4.95;;;;;;;;;;4931100;28;20028;-74
2023/05/24 04:58:07;;;;;;;15.50;4.57;;;;;;;;;;4926206;29;20031;-75
2023/05/24 05:00:33;;;;;;;27.10;6.55;;;;;;;;;;4950529;28;20039;-76
2023/05/24 05:02:59;;;;;;;21.40;5.32;;;;;;;;;;4936372;28;20143;-77
2023/05/24 05:05:25;;;;;;;16.23;4.45;;;;;;;;;;4925865;29;20118;-77
2023/05/24 05:07:51;;;;;;;23.02;5.05;;;;;;;;;;4927954;29;20050;-76
2023/05/24 05:10:17;;;;;;;16.10;4.28;;;;;;;;;;4934367;29;20043;-77
2023/05/24 05:12:43;;;;;;;19.15;4.35;;;;;;;;;;4930924;29;20083;-76
2023/05/24 05:15:09;;;;;;;22.98;4.10;;;;;;;;;;4932497;29;20378;-76
2023/05/24 05:17:35;;;;;;;19.58;4.03;;;;;;;;;;4937550;29;20459;-75
2023/05/24 05:20:02;;;;;;;23.92;3.65;;;;;;;;;;4933573;29;20371;-75
2023/05/24 05:22:28;;;;;;;21.25;4.57;;;;;;;;;;4925123;29;20063;-74
2023/05/24 05:24:54;;;;;;;23.30;4.97;;;;;;;;;;4947421;29;20484;-76
2023/05/24 05:27:20;;;;;;;26.90;5.90;;;;;;;;;;4935545;29;20054;-75
2023/05/24 05:29:46;;;;;;;24.73;4.63;;;;;;;;;;4943502;29;20031;-75
2023/05/24 05:32:12;;;;;;;21.92;4.20;;;;;;;;;;4950079;29;20038;-75
2023/05/24 05:34:38;;;;;;;34.00;5.10;;;;;;;;;;4941846;29;20044;-77
2023/05/24 05:37:04;;;;;;;23.38;5.95;;;;;;;;;;4925534;29;20114;-75
2023/05/24 05:39:30;;;;;;;22.95;4.15;;;;;;;;;;4918002;29;20078;-75
2023/05/24 05:41:57;;;;;;;23.40;4.63;;;;;;;;;;4933560;29;20067;-75
2023/05/24 05:44:23;;;;;;;20.38;4.93;;;;;;;;;;4934210;29;20036;-76
2023/05/24 05:46:48;;;;;;;17.95;4.35;;;;;;;;;;4949810;29;20099;-76
2023/05/24 05:49:17;;;;;;;18.95;4.40;;;;;;;;;;4930424;29;20057;-79
2023/05/24 05:51:43;;;;;;;23.60;5.13;;;;;;;;;;4923256;29;20032;-75
2023/05/24 05:54:14;;;;;;;26.33;5.28;;;;;;;;;;4926282;29;20038;-76
2023/05/24 05:56:44;;;;;;;25.30;4.57;;;;;;;;;;4922504;29;20060;-75
2023/05/24 05:59:11;;;;;;;22.70;4.75;;;;;;;;;;4922593;29;20024;-77
2023/05/24 06:01:37;;;;;;;25.17;4.85;;;;;;;;;;4925926;29;20024;-76
2023/05/24 06:04:03;;;;;;;22.95;4.93;;;;;;;;;;4918989;29;20151;-76
2023/05/24 06:06:29;;;;;;;25.50;4.50;;;;;;;;;;4960252;28;20123;-76
2023/05/24 06:08:55;;;;;;;20.30;4.60;;;;;;;;;;4920452;29;20039;-77
2023/05/24 06:11:22;;;;;;;19.90;4.30;;;;;;;;;;4920320;29;20367;-76
2023/05/24 06:13:48;;;;;;;18.38;4.03;;;;;;;;;;4918614;29;20504;-76
2023/05/24 06:16:14;;;;;;;25.48;4.63;;;;;;;;;;4929286;29;20036;-80
2023/05/24 06:18:41;;;;;;;24.63;4.55;;;;;;;;;;4932397;28;20150;-77
2023/05/24 06:21:09;;;;;;;25.70;4.43;;;;;;;;;;4940443;28;20031;-76
2023/05/24 06:23:36;;;;;;;27.92;4.70;;;;;;;;;;4920538;29;20453;-78
2023/05/24 06:26:02;;;;;;;21.80;4.18;;;;;;;;;;4923056;29;20031;-80
2023/05/24 06:28:28;;;;;;;25.00;4.47;;;;;;;;;;4918027;29;20067;-75
2023/05/24 06:30:55;;;;;;;33.47;5.07;;;;;;;;;;4925495;29;20460;-76
2023/05/24 06:33:21;;;;;;;23.23;3.70;;;;;;;;;;4923681;29;20111;-75
2023/05/24 06:35:47;;;;;;;26.10;4.43;;;;;;;;;;4923579;29;20166;-76
2023/05/24 06:38:13;;;;;;;23.55;3.90;;;;;;;;;;4923413;29;20039;-76
2023/05/24 06:40:40;;;;;;;27.30;4.70;;;;;;;;;;4930603;29;20035;-76
2023/05/24 06:43:06;;;;;;;24.10;4.63;;;;;;;;;;4926840;29;20394;-76
2023/05/24 06:45:32;;;;;;;25.35;5.70;;;;;;;;;;4931496;28;20028;-75
2023/05/24 06:47:58;;;;;;;21.42;4.97;;;;;;;;;;4938816;28;20525;-75
2023/05/24 06:50:24;;;;;;;22.35;4.03;;;;;;;;;;4922499;29;20127;-76
2023/05/24 06:52:50;;;;;;;18.70;4.38;;;;;;;;;;4926731;29;20130;-76
2023/05/24 06:55:16;;;;;;;23.77;5.25;;;;;;;;;;4922469;29;20110;-76
2023/05/24 06:57:42;;;;;;;22.98;4.20;;;;;;;;;;4922699;29;20032;-75
2023/05/24 07:00:11;;;;;;;16.52;4.30;;;;;;;;;;4926911;29;20035;-76
2023/05/24 07:02:38;;;;;;;23.30;4.53;;;;;;;;;;4927944;29;20038;-76
2023/05/24 07:05:05;;;;;;;23.25;5.03;;;;;;;;;;4928217;29;20107;-77
2023/05/24 07:07:31;;;;;;;22.00;4.68;;;;;;;;;;4937424;29;20059;-76
2023/05/24 07:09:57;;;;;;;15.25;3.13;;;;;;;;;;4937849;28;20127;-77
2023/05/24 07:12:23;;;;;;;20.48;5.28;;;;;;;;;;4935800;28;20367;-75
2023/05/24 07:14:49;;;;;;;18.25;5.05;;;;;;;;;;4928142;29;20094;-74
2023/05/24 07:17:15;;;;;;;21.10;4.35;;;;;;;;;;4928613;29;20043;-76
2023/05/24 07:19:41;;;;;;;21.13;4.70;;;;;;;;;;4923742;29;20370;-77
2023/05/24 07:22:07;;;;;;;27.88;5.85;;;;;;;;;;4923845;29;20103;-75
2023/05/24 07:24:33;;;;;;;18.63;5.22;;;;;;;;;;4934823;29;20090;-74
2023/05/24 07:26:59;;;;;;;20.90;4.40;;;;;;;;;;4923941;29;20404;-79
2023/05/24 07:29:25;;;;;;;14.50;3.20;;;;;;;;;;4940727;28;20127;-78
2023/05/24 07:31:51;;;;;;;18.35;3.88;;;;;;;;;;4930559;29;20292;-77
2023/05/24 07:34:20;;;;;;;20.05;4.03;;;;;;;;;;4927471;29;20288;-78
2023/05/24 07:36:47;;;;;;;21.88;4.38;;;;;;;;;;4920711;29;20036;-81
2023/05/24 07:39:14;;;;;;;20.98;4.00;;;;;;;;;;4923032;29;20027;-77
2023/05/24 07:41:41;;;;;;;14.00;3.00;;;;;;;;;;4927933;28;20405;-78
2023/05/24 07:44:07;;;;;;;16.77;4.70;;;;;;;;;;4933789;29;20036;-76
2023/05/24 07:46:33;;;;;;;19.95;3.63;;;;;;;;;;4931303;29;20040;-75
2023/05/24 07:48:59;;;;;;;16.85;3.35;;;;;;;;;;4932037;29;20028;-76
2023/05/24 07:51:25;;;;;;;14.85;3.22;;;;;;;;;;4927359;29;20047;-77
2023/05/24 07:53:52;;;;;;;15.60;3.65;;;;;;;;;;4934470;29;20039;-76
2023/05/24 07:56:18;;;;;;;20.45;3.97;;;;;;;;;;4928281;29;20028;-74
2023/05/24 07:58:45;;;;;;;12.27;3.42;;;;;;;;;;4975717;28;20044;-74
2023/05/24 08:01:12;;;;;;;21.35;3.50;;;;;;;;;;4929978;29;20034;-74
2023/05/24 08:03:38;;;;;;;19.35;3.65;;;;;;;;;;4929483;29;20118;-74
2023/05/24 08:06:04;;;;;;;10.65;3.10;;;;;;;;;;4928107;29;20039;-76
2023/05/24 08:08:30;;;;;;;17.15;3.35;;;;;;;;;;4931275;29;20056;-76
2023/05/24 08:10:56;;;;;;;15.90;3.00;;;;;;;;;;4930195;29;20032;-78
2023/05/24 08:13:23;;;;;;;16.27;3.40;;;;;;;;;;4933008;29;20063;-78
2023/05/24 08:15:49;;;;;;;18.48;3.88;;;;;;;;;;4932681;29;20024;-75
2023/05/24 08:18:16;;;;;;;11.48;3.20;;;;;;;;;;4931529;29;20126;-75
2023/05/24 08:20:42;;;;;;;13.70;3.15;;;;;;;;;;4936175;29;20500;-77
2023/05/24 08:23:08;;;;;;;13.10;3.45;;;;;;;;;;4934255;29;20114;-78
2023/05/24 08:25:34;;;;;;;14.27;4.07;;;;;;;;;;4933106;29;20380;-78
2023/05/24 08:28:00;;;;;;;14.57;3.60;;;;;;;;;;4929658;29;20114;-80
2023/05/24 08:30:26;;;;;;;26.10;6.07;;;;;;;;;;4921753;29;21647;-76
2023/05/24 08:32:53;;;;;;;15.93;3.55;;;;;;;;;;4937745;29;20099;-76
2023/05/24 08:35:19;;;;;;;14.05;4.05;;;;;;;;;;4939387;29;20103;-77
2023/05/24 08:37:46;;;;;;;11.32;3.55;;;;;;;;;;4926983;29;20040;-79
2023/05/24 08:40:13;;;;;;;10.70;2.78;;;;;;;;;;4908247;29;20474;-82
2023/05/24 08:42:39;;;;;;;18.67;3.33;;;;;;;;;;4942395;28;20036;-79
2023/05/24 08:45:11;;;;;;;10.85;3.03;;;;;;;;;;4925428;29;20044;-77
2023/05/24 08:47:38;;;;;;;13.43;3.33;;;;;;;;;;4920697;29;20542;-75
2023/05/24 08:50:05;;;;;;;18.80;3.78;;;;;;;;;;4920702;29;20115;-78
2023/05/24 08:52:31;;;;;;;15.73;3.55;;;;;;;;;;4927321;29;20036;-75
2023/05/24 08:55:00;;;;;;;13.93;3.55;;;;;;;;;;4925870;29;20118;-76
2023/05/24 08:57:27;;;;;;;20.13;3.38;;;;;;;;;;4926765;29;20039;-79
2023/05/24 08:59:56;;;;;;;15.63;4.07;;;;;;;;;;4941423;28;20035;-74
2023/05/24 09:02:22;;;;;;;18.40;3.50;;;;;;;;;;4936479;29;20048;-74
2023/05/24 09:04:49;;;;;;;12.82;4.97;;;;;;;;;;4930603;29;20063;-78
2023/05/24 09:07:23;;;;;;;20.95;5.00;;;;;;;;;;4922775;29;20059;-77
2023/05/24 09:09:52;;;;;;;12.95;3.83;;;;;;;;;;4919648;29;20745;-78
2023/05/24 09:12:20;;;;;;;16.27;3.08;;;;;;;;;;4921523;29;20126;-78
2023/05/24 09:14:46;;;;;;;17.70;4.45;;;;;;;;;;4930454;29;20035;-76
2023/05/24 09:17:14;;;;;;;11.27;3.03;;;;;;;;;;4939787;29;20405;-79
2023/05/24 09:19:43;;;;;;;14.45;4.28;;;;;;;;;;4934078;29;20054;-79
2023/05/24 09:22:09;;;;;;;11.48;2.90;;;;;;;;;;4922497;29;20036;-79
2023/05/24 09:24:47;;;;;;;15.82;3.35;;;;;;;;;;4919230;29;20071;-78
2023/05/24 09:27:16;;;;;;;15.27;3.63;;;;;;;;;;4930733;29;20046;-80
2023/05/24 09:29:47;;;;;;;10.35;2.70;;;;;;;;;;4928022;29;20054;-78
2023/05/24 09:32:13;;;;;;;10.75;2.75;;;;;;;;;;4927713;29;20042;-78
2023/05/24 09:34:43;;;;;;;13.70;2.78;;;;;;;;;;4927123;29;20047;-78
2023/05/24 09:37:12;;;;;;;12.80;3.22;;;;;;;;;;4927712;29;20122;-75
2023/05/24 09:39:39;;;;;;;11.10;3.15;;;;;;;;;;4934345;29;20038;-75
2023/05/24 09:42:05;;;;;;;11.38;2.72;;;;;;;;;;4925196;29;20444;-78
2023/05/24 09:44:31;;;;;;;9.40;2.80;;;;;;;;;;4931198;28;20501;-76
2023/05/24 09:47:03;;;;;;;7.75;3.10;;;;;;;;;;4933803;29;20027;-75
2023/05/24 09:49:29;;;;;;;19.88;4.03;;;;;;;;;;4927704;29;20032;-74
2023/05/24 09:51:56;;;;;;;15.05;3.33;;;;;;;;;;4945535;28;20031;-78
2023/05/24 09:54:24;;;;;;;16.80;3.85;;;;;;;;;;4923775;29;20763;-77
2023/05/24 09:56:51;;;;;;;14.38;3.20;;;;;;;;;;4926322;29;20020;-78
2023/05/24 09:59:18;;;;;;;14.73;3.88;;;;;;;;;;4923053;29;20035;-76
2023/05/24 10:01:45;;;;;;;11.20;2.63;;;;;;;;;;4929231;29;20032;-76
2023/05/24 10:04:12;;;;;;;15.88;3.08;;;;;;;;;;4939391;29;20038;-75
2023/05/24 10:06:41;;;;;;;17.00;2.92;;;;;;;;;;4931863;28;20107;-77
2023/05/24 10:09:08;;;;;;;12.77;3.75;;;;;;;;;;4934707;29;20502;-78
2023/05/24 10:11:37;;;;;;;10.32;2.88;;;;;;;;;;4928822;29;20051;-74
2023/05/24 10:14:05;;;;;;;11.95;2.60;;;;;;;;;;4937126;29;20444;-74
2023/05/24 10:16:32;;;;;;;8.73;2.55;;;;;;;;;;4929425;29;20020;-74
2023/05/24 10:18:58;;;;;;;10.73;3.10;;;;;;;;;;4928564;29;20055;-75
2023/05/24 10:21:24;;;;;;;12.75;2.97;;;;;;;;;;4943575;29;20573;-75
2023/05/24 10:23:55;;;;;;;22.73;8.30;;;;;;;;;;4932929;29;20038;-76
2023/05/24 10:26:24;;;;;;;17.52;7.63;;;;;;;;;;4932472;29;20035;-76
2023/05/24 10:28:54;;;;;;;12.32;3.00;;;;;;;;;;4933061;29;20040;-74
2023/05/24 10:31:31;;;;;;;14.55;3.10;;;;;;;;;;4934931;29;20040;-78
2023/05/24 10:33:58;;;;;;;16.73;3.92;;;;;;;;;;4929674;29;20560;-75
2023/05/24 10:36:25;;;;;;;13.70;3.33;;;;;;;;;;4929612;29;20378;-77
2023/05/24 10:38:51;;;;;;;9.52;2.72;;;;;;;;;;4934704;29;20055;-76
2023/05/24 10:41:18;;;;;;;16.98;3.45;;;;;;;;;;4938034;29;20027;-78
2023/05/24 10:43:45;;;;;;;12.15;2.45;;;;;;;;;;4933204;29;20431;-76
2023/05/24 10:46:13;;;;;;;10.70;3.10;;;;;;;;;;4944138;29;20099;-76
2023/05/24 10:48:40;;;;;;;13.68;3.83;;;;;;;;;;4945265;29;20036;-75
2023/05/24 10:51:34;;;;;;;8.63;2.40;;;16.10;99.90;;;;;;4934897;29;20433;-76
2023/05/24 10:54:12;;;;;;;14.35;2.65;;;;;;;;;;4932858;29;20055;-77
2023/05/24 10:56:43;;;;;;;12.30;3.60;;;;;;;;;;4935745;29;20035;-78
2023/05/24 10:59:09;;;;;;;13.85;3.30;;;;;;;;;;4930356;29;20028;-76
2023/05/24 11:01:35;;;;;;;8.85;3.00;;;;;;;;;;4940764;28;20178;-75
2023/05/24 11:04:17;;;;;;;7.88;2.40;;;;;;;;;;4925921;29;20036;-76
2023/05/24 11:06:49;;;;;;;15.35;2.63;;;;;;;;;;4938804;29;20032;-76
2023/05/24 11:09:19;;;;;;;9.70;2.20;;;;;;;;;;4926104;29;20103;-78
2023/05/24 11:11:46;;;;;;;11.23;2.95;;;;;;;;;;4943218;29;20051;-77
2023/05/24 11:14:13;;;;;;;9.55;2.83;;;;;;;;;;4924597;29;20056;-79
2023/05/24 11:16:39;;;;;;;16.45;3.17;;;;;;;;;;4927254;29;20039;-76
2023/05/24 11:19:14;;;;;;;13.38;3.03;;;;;;;;;;4926042;29;20541;-78
2023/05/24 11:21:40;;;;;;;12.05;2.50;;;;;;;;;;4929690;29;20040;-80
2023/05/24 11:24:06;;;;;;;8.35;2.47;;;;;;;;;;4922413;29;20050;-76
2023/05/24 11:26:32;;;;;;;12.45;3.35;;;;;;;;;;4929342;29;20039;-77
2023/05/24 11:29:00;;;;;;;14.40;3.70;;;;;;;;;;4923063;29;20043;-76
2023/05/24 11:31:26;;;;;;;18.52;3.35;;;;;;;;;;4925467;29;20146;-78
2023/05/24 11:33:53;;;;;;;11.15;2.70;;;;;;;;;;4925126;29;20038;-75
2023/05/24 11:36:20;;;;;;;14.80;3.85;;;;;;;;;;4930545;29;20094;-79
2023/05/24 11:38:46;;;;;;;7.85;2.60;;;;;;;;;;4933961;29;20135;-74
2023/05/24 11:41:12;;;;;;;14.70;3.42;;;;;;;;;;4924271;29;20508;-76
2023/05/24 11:43:40;;;;;;;8.98;2.92;;;;;;;;;;4923512;29;20039;-75
2023/05/24 11:46:06;;;;;;;16.23;3.38;;;;;;;;;;4940246;29;20111;-75
2023/05/24 11:48:32;;;;;;;8.68;2.20;;;;;;;;;;4934713;29;20147;-74
2023/05/24 11:50:58;;;;;;;9.73;2.40;;;;;;;;;;4931660;29;20509;-76
2023/05/24 11:53:24;;;;;;;9.30;2.92;;;;;;;;;;4933624;29;20040;-75
2023/05/24 11:55:53;;;;;;;14.75;2.95;;;;;;;;;;4930234;29;20107;-76
2023/05/24 11:58:22;;;;;;;10.02;3.22;;;;;;;;;;4924966;29;20107;-75
2023/05/24 12:00:48;;;;;;;8.00;2.10;;;;;;;;;;4934403;29;20422;-75
2023/05/24 12:03:15;;;;;;;8.98;2.78;;;;;;;;;;4934588;29;20032;-75
2023/05/24 12:05:42;;;;;;;13.45;3.20;;;;;;;;;;4937582;29;20019;-75
2023/05/24 12:08:08;;;;;;;6.80;2.00;;;;;;;;;;4936011;28;20043;-75
2023/05/24 12:10:35;;;;;;;8.18;2.15;;;;;;;;;;4929421;29;20032;-75
2023/05/24 12:13:02;;;;;;;18.05;3.58;;;;;;;;;;4935066;29;20487;-75
2023/05/24 12:15:29;;;;;;;11.80;2.83;;;;;;;;;;4938981;29;20727;-74
2023/05/24 12:17:56;;;;;;;10.27;2.63;;;;;;;;;;4941560;29;20442;-80
2023/05/24 12:20:22;;;;;;;10.50;2.72;;;;;;;;;;4929500;29;20023;-75
2023/05/24 12:22:51;;;;;;;8.02;1.92;;;;;;;;;;4933313;29;20083;-74
2023/05/24 12:25:21;;;;;;;10.75;2.75;;;;;;;;;;4950978;29;20039;-74
2023/05/24 12:27:47;;;;;;;8.93;2.63;;;;;;;;;;4927812;29;20134;-78
2023/05/24 12:30:19;;;;;;;8.48;3.05;;;;;;;;;;4934074;29;20043;-74
2023/05/24 12:32:46;;;;;;;11.82;3.80;;;;;;;;;;4951539;29;20078;-74
2023/05/24 12:35:12;;;;;;;10.02;2.97;;;;;;;;;;4933570;29;20032;-77
2023/05/24 12:37:38;;;;;;;8.88;2.72;;;;;;;;;;4932048;29;20047;-75
2023/05/24 12:40:15;;;;;;;8.98;2.40;;;;;;;;;;4926520;29;20032;-74
2023/05/24 12:42:42;;;;;;;9.40;2.50;;;;;;;;;;4933387;29;20561;-74
2023/05/24 12:45:09;;;;;;;7.03;2.28;;;;;;;;;;4942904;29;20031;-79
2023/05/24 12:47:35;;;;;;;6.57;1.98;;;;;;;;;;4933501;29;20194;-76
2023/05/24 12:50:01;;;;;;;5.65;1.92;;;;;;;;;;4933890;29;20028;-74
2023/05/24 12:52:27;;;;;;;9.30;2.10;;;;;;;;;;4927272;29;20038;-76
2023/05/24 12:54:53;;;;;;;5.05;1.58;;;;;;;;;;4932111;29;20032;-74
2023/05/24 12:57:19;;;;;;;5.85;2.20;;;;;;;;;;4932853;29;20062;-75
2023/05/24 12:59:46;;;;;;;9.93;1.98;;;;;;;;;;4934783;29;20027;-74
2023/05/24 13:02:12;;;;;;;6.30;2.10;;;;;;;;;;4946310;28;20405;-77
2023/05/24 13:04:38;;;;;;;7.88;2.30;;;;;;;;;;4934212;29;20044;-76
2023/05/24 13:07:04;;;;;;;4.65;2.15;;;;;;;;;;4936549;29;20035;-74
2023/05/24 13:09:32;;;;;;;5.18;1.70;;;;;;;;;;4934055;28;20482;-74
2023/05/24 13:11:58;;;;;;;6.80;1.80;;;;;;;;;;4932293;29;20038;-74
2023/05/24 13:14:24;;;;;;;5.45;1.40;;;;;;;;;;4935933;29;20485;-73
2023/05/24 13:16:50;;;;;;;8.10;2.15;;;;;;;;;;4979602;28;20428;-74
2023/05/24 13:19:16;;;;;;;6.82;1.90;;;;;;;;;;4939730;29;20035;-79
2023/05/24 13:21:42;;;;;;;8.25;2.30;;;;;;;;;;4933228;29;20041;-74
2023/05/24 13:24:08;;;;;;;9.15;2.20;;;;;;;;;;4933983;29;20054;-75
2023/05/24 13:26:36;;;;;;;9.13;2.20;;;;;;;;;;4921508;29;20360;-74
2023/05/24 13:29:02;;;;;;;7.78;1.98;;;;;;;;;;4923081;29;20072;-75
2023/05/24 13:31:29;;;;;;;8.85;2.08;;;;;;;;;;4943236;29;20079;-75
2023/05/24 13:33:55;;;;;;;6.05;2.45;;;;;;;;;;4937557;29;20490;-75
2023/05/24 13:36:21;;;;;;;6.03;1.90;;;;;;;;;;4932734;29;20032;-74
2023/05/24 13:38:47;;;;;;;6.95;1.98;;;;;;;;;;4932269;29;20089;-76
2023/05/24 13:41:13;;;;;;;8.32;2.58;;;;;;;;;;4933439;29;20036;-75
2023/05/24 13:43:39;;;;;;;5.57;2.10;;;;;;;;;;4929020;29;20028;-76
2023/05/24 13:46:05;;;;;;;6.75;2.10;;;;;;;;;;4947981;29;20042;-74
2023/05/24 13:48:31;;;;;;;5.53;2.42;;;;;;;;;;4946223;29;20398;-74
2023/05/24 13:50:57;;;;;;;6.00;1.70;;;;;;;;;;4932926;29;20134;-75
2023/05/24 13:53:25;;;;;;;11.63;2.97;;;;;;;;;;4930903;29;20622;-75
2023/05/24 13:55:51;;;;;;;10.45;2.35;;;;;;;;;;4931919;29;20035;-74
2023/05/24 13:58:17;;;;;;;9.35;2.58;;;;;;;;;;4933178;29;20044;-75
2023/05/24 14:00:43;;;;;;;6.25;1.92;;;;;;;;;;4933998;29;20491;-76
2023/05/24 14:03:11;;;;;;;9.65;2.53;;;;;;;;;;4931638;29;20039;-75
2023/05/24 14:05:39;;;;;;;9.55;2.58;;;;;;;;;;4932814;29;20087;-75
2023/05/24 14:08:05;;;;;;;10.23;3.05;;;;;;;;;;4932249;29;20036;-75
2023/05/24 14:10:33;;;;;;;8.13;2.33;;;;;;;;;;4933004;29;20066;-75
2023/05/24 14:12:59;;;;;;;7.68;2.28;;;;;;;;;;4927970;29;20036;-75
2023/05/24 14:15:25;;;;;;;11.68;2.90;;;;;;;;;;4935204;29;20056;-75
2023/05/24 14:17:51;;;;;;;10.38;2.35;;;;;;;;;;4948303;29;20027;-75
2023/05/24 14:20:17;;;;;;;7.63;2.53;;;;;;;;;;4933224;29;20067;-75
2023/05/24 14:22:43;;;;;;;7.68;2.90;;;;;;;;;;4917105;29;20046;-75
2023/05/24 14:25:09;;;;;;;8.07;2.05;;;;;;;;;;4932720;29;20036;-76
2023/05/24 14:27:35;;;;;;;6.70;1.85;;;;;;;;;;4926679;29;20090;-75
2023/05/24 14:30:01;;;;;;;10.00;2.40;;;;;;;;;;4931794;29;20044;-75
2023/05/24 14:32:27;;;;;;;4.68;1.75;;;;;;;;;;4950773;29;20061;-74